createdAt,value
2024-04-21T00:00:02.342Z,1022.36
2024-04-21T00:01:02.361Z,1022.4
2024-04-21T00:02:02.403Z,1022.36
2024-04-21T00:03:02.455Z,1022.35
2024-04-21T00:04:02.446Z,1022.32
2024-04-21T00:05:02.475Z,1022.32
2024-04-21T00:06:02.333Z,1022.31
2024-04-21T00:07:02.364Z,1022.31
2024-04-21T00:08:02.340Z,1022.3
2024-04-21T00:09:02.364Z,1022.29
2024-04-21T00:10:02.387Z,1022.31
2024-04-21T00:11:02.372Z,1022.32
2024-04-21T00:12:02.339Z,1022.3
2024-04-21T00:13:02.359Z,1022.34
2024-04-21T00:14:02.338Z,1022.31
2024-04-21T00:15:02.348Z,1022.29
2024-04-21T00:16:02.667Z,1022.29
2024-04-21T00:17:02.468Z,1022.31
2024-04-21T00:18:02.424Z,1022.35
2024-04-21T00:19:02.367Z,1022.34
2024-04-21T00:20:02.405Z,1022.34
2024-04-21T00:21:02.336Z,1022.35
2024-04-21T00:22:02.369Z,1022.35
2024-04-21T00:23:02.337Z,1022.29
2024-04-21T00:24:02.338Z,1022.31
2024-04-21T00:25:02.404Z,1022.33
2024-04-21T00:26:02.336Z,1022.31
2024-04-21T00:27:02.360Z,1022.27
2024-04-21T00:28:02.456Z,1022.34
2024-04-21T00:29:02.341Z,1022.31
2024-04-21T00:30:02.342Z,1022.36
2024-04-21T00:31:02.373Z,1022.31
2024-04-21T00:32:02.339Z,1022.38
2024-04-21T00:33:02.397Z,1022.38
2024-04-21T00:34:02.423Z,1022.36
2024-04-21T00:35:02.343Z,1022.33
2024-04-21T00:36:02.340Z,1022.36
2024-04-21T00:37:02.390Z,1022.34
2024-04-21T00:38:02.334Z,1022.33
2024-04-21T00:39:02.344Z,1022.36
2024-04-21T00:40:02.415Z,1022.35
2024-04-21T00:41:02.340Z,1022.36
2024-04-21T00:42:02.335Z,1022.35
2024-04-21T00:43:02.514Z,1022.36
2024-04-21T00:44:02.325Z,1022.38
2024-04-21T00:45:02.336Z,1022.35
2024-04-21T00:46:02.410Z,1022.38
2024-04-21T00:47:02.409Z,1022.35
2024-04-21T00:48:02.423Z,1022.4
2024-04-21T00:49:02.445Z,1022.35
2024-04-21T00:50:02.452Z,1022.36
2024-04-21T00:51:02.357Z,1022.35
2024-04-21T00:52:02.335Z,1022.38
2024-04-21T00:53:02.348Z,1022.35
2024-04-21T00:54:02.339Z,1022.36
2024-04-21T00:55:02.388Z,1022.33
2024-04-21T00:56:02.342Z,1022.34
2024-04-21T00:57:02.330Z,1022.36
2024-04-21T00:58:02.522Z,1022.3
2024-04-21T00:59:02.343Z,1022.3
2024-04-21T01:00:02.343Z,1022.33
2024-04-21T01:01:02.421Z,1022.28
2024-04-21T01:02:02.384Z,1022.27
2024-04-21T01:03:02.347Z,1022.31
2024-04-21T01:04:02.439Z,1022.29
2024-04-21T01:05:02.463Z,1022.28
2024-04-21T01:06:02.343Z,1022.3
2024-04-21T01:07:02.402Z,1022.31
2024-04-21T01:08:02.328Z,1022.32
2024-04-21T01:09:02.347Z,1022.31
2024-04-21T01:10:02.375Z,1022.31
2024-04-21T01:11:02.384Z,1022.31
2024-04-21T01:12:02.350Z,1022.35
2024-04-21T01:13:02.371Z,1022.35
2024-04-21T01:14:02.336Z,1022.35
2024-04-21T01:15:02.338Z,1022.36
2024-04-21T01:16:02.383Z,1022.36
2024-04-21T01:17:02.391Z,1022.34
2024-04-21T01:18:02.482Z,1022.35
2024-04-21T01:19:02.413Z,1022.37
2024-04-21T01:20:02.423Z,1022.37
2024-04-21T01:21:02.336Z,1022.35
2024-04-21T01:22:02.367Z,1022.32
2024-04-21T01:23:02.344Z,1022.36
2024-04-21T01:24:02.344Z,1022.33
2024-04-21T01:25:02.428Z,1022.36
2024-04-21T01:26:02.350Z,1022.37
2024-04-21T01:27:02.326Z,1022.34
2024-04-21T01:28:02.417Z,1022.32
2024-04-21T01:29:02.346Z,1022.35
2024-04-21T01:30:02.327Z,1022.36
2024-04-21T01:31:02.359Z,1022.36
2024-04-21T01:32:02.384Z,1022.36
2024-04-21T01:33:02.525Z,1022.37
2024-04-21T01:34:02.414Z,1022.34
2024-04-21T01:35:02.350Z,1022.37
2024-04-21T01:36:02.349Z,1022.37
2024-04-21T01:37:02.375Z,1022.35
2024-04-21T01:38:02.338Z,1022.35
2024-04-21T01:39:02.334Z,1022.31
2024-04-21T01:40:02.435Z,1022.3
2024-04-21T01:41:02.344Z,1022.36
2024-04-21T01:42:02.330Z,1022.34
2024-04-21T01:43:02.461Z,1022.34
2024-04-21T01:44:02.344Z,1022.34
2024-04-21T01:46:02.375Z,1022.32
2024-04-21T01:47:02.350Z,1022.3
2024-04-21T01:48:02.419Z,1022.31
2024-04-21T01:49:02.356Z,1022.3
2024-04-21T01:50:02.350Z,1022.32
2024-04-21T01:51:02.330Z,1022.3
2024-04-21T01:52:02.372Z,1022.3
2024-04-21T01:53:02.358Z,1022.31
2024-04-21T01:54:02.342Z,1022.31
2024-04-21T01:55:02.420Z,1022.3
2024-04-21T01:56:02.325Z,1022.34
2024-04-21T01:57:02.337Z,1022.3
2024-04-21T01:58:02.469Z,1022.26
2024-04-21T01:59:02.348Z,1022.25
2024-04-21T02:00:02.335Z,1022.3
2024-04-21T02:01:02.414Z,1022.29
2024-04-21T02:02:02.335Z,1022.29
2024-04-21T02:03:02.347Z,1022.25
2024-04-21T02:04:02.512Z,1022.3
2024-04-21T02:05:02.354Z,1022.33
2024-04-21T02:06:02.340Z,1022.31
2024-04-21T02:07:02.347Z,1022.31
2024-04-21T02:08:02.349Z,1022.4
2024-04-21T02:09:02.328Z,1022.36
2024-04-21T02:10:02.416Z,1022.36
2024-04-21T02:11:02.396Z,1022.36
2024-04-21T02:12:02.331Z,1022.4
2024-04-21T02:13:02.405Z,1022.4
2024-04-21T02:14:02.328Z,1022.43
2024-04-21T02:15:02.330Z,1022.45
2024-04-21T02:16:02.421Z,1022.42
2024-04-21T02:17:02.435Z,1022.42
2024-04-21T02:18:02.369Z,1022.4
2024-04-21T02:19:02.346Z,1022.41
2024-04-21T02:20:02.345Z,1022.43
2024-04-21T02:21:02.329Z,1022.4
2024-04-21T02:22:02.390Z,1022.38
2024-04-21T02:23:02.336Z,1022.4
2024-04-21T02:24:02.342Z,1022.42
2024-04-21T02:25:02.413Z,1022.42
2024-04-21T02:26:02.331Z,1022.42
2024-04-21T02:27:02.353Z,1022.44
2024-04-21T02:28:02.369Z,1022.47
2024-04-21T02:29:02.326Z,1022.5
2024-04-21T02:30:02.385Z,1022.5
2024-04-21T02:31:02.381Z,1022.5
2024-04-21T02:32:02.331Z,1022.48
2024-04-21T02:33:02.470Z,1022.46
2024-04-21T02:34:02.405Z,1022.47
2024-04-21T02:35:02.358Z,1022.45
2024-04-21T02:36:02.347Z,1022.46
2024-04-21T02:37:02.430Z,1022.45
2024-04-21T02:38:02.328Z,1022.42
2024-04-21T02:39:02.336Z,1022.45
2024-04-21T02:40:02.362Z,1022.42
2024-04-21T02:41:02.376Z,1022.42
2024-04-21T02:42:02.329Z,1022.45
2024-04-21T02:43:02.431Z,1022.49
2024-04-21T02:44:02.329Z,1022.48
2024-04-21T02:45:02.361Z,1022.47
2024-04-21T02:46:02.398Z,1022.46
2024-04-21T02:47:02.381Z,1022.43
2024-04-21T02:48:02.365Z,1022.45
2024-04-21T02:49:02.427Z,1022.47
2024-04-21T02:50:02.346Z,1022.44
2024-04-21T02:51:02.325Z,1022.45
2024-04-21T02:52:02.375Z,1022.45
2024-04-21T02:53:02.328Z,1022.41
2024-04-21T02:54:02.336Z,1022.43
2024-04-21T02:55:02.420Z,1022.41
2024-04-21T02:56:02.318Z,1022.4
2024-04-21T02:57:02.373Z,1022.38
2024-04-21T02:58:02.350Z,1022.34
2024-04-21T02:59:02.347Z,1022.35
2024-04-21T03:00:02.342Z,1022.36
2024-04-21T03:01:02.419Z,1022.37
2024-04-21T03:02:02.345Z,1022.35
2024-04-21T03:03:02.334Z,1022.37
2024-04-21T03:04:02.443Z,1022.33
2024-04-21T03:05:05.369Z,1022.31
2024-04-21T03:06:02.335Z,1022.31
2024-04-21T03:07:02.392Z,1022.31
2024-04-21T03:08:02.330Z,1022.3
2024-04-21T03:09:02.337Z,1022.33
2024-04-21T03:10:02.384Z,1022.28
2024-04-21T03:11:02.375Z,1022.28
2024-04-21T03:12:02.331Z,1022.26
2024-04-21T03:13:02.459Z,1022.31
2024-04-21T03:14:02.329Z,1022.31
2024-04-21T03:15:02.340Z,1022.29
2024-04-21T03:16:02.342Z,1022.28
2024-04-21T03:17:02.369Z,1022.28
2024-04-21T03:18:02.431Z,1022.29
2024-04-21T03:19:02.346Z,1022.28
2024-04-21T03:20:02.337Z,1022.31
2024-04-21T03:21:02.340Z,1022.31
2024-04-21T03:22:02.378Z,1022.31
2024-04-21T03:23:02.325Z,1022.31
2024-04-21T03:24:02.349Z,1022.32
2024-04-21T03:25:02.376Z,1022.29
2024-04-21T03:26:02.338Z,1022.26
2024-04-21T03:27:02.341Z,1022.28
2024-04-21T03:28:02.376Z,1022.28
2024-04-21T03:29:02.341Z,1022.31
2024-04-21T03:30:02.380Z,1022.29
2024-04-21T03:31:02.415Z,1022.35
2024-04-21T03:32:02.347Z,1022.29
2024-04-21T03:33:02.462Z,1022.29
2024-04-21T03:34:02.374Z,1022.31
2024-04-21T03:35:02.352Z,1022.3
2024-04-21T03:36:02.327Z,1022.3
2024-04-21T03:37:02.440Z,1022.32
2024-04-21T03:38:02.341Z,1022.33
2024-04-21T03:39:02.323Z,1022.34
2024-04-21T03:40:02.352Z,1022.34
2024-04-21T03:41:02.349Z,1022.28
2024-04-21T03:42:02.343Z,1022.3
2024-04-21T03:43:02.356Z,1022.3
2024-04-21T03:44:02.333Z,1022.34
2024-04-21T03:45:02.331Z,1022.33
2024-04-21T03:46:02.367Z,1022.32
2024-04-21T03:47:02.395Z,1022.31
2024-04-21T03:48:02.416Z,1022.34
2024-04-21T03:49:02.411Z,1022.33
2024-04-21T03:50:02.357Z,1022.3
2024-04-21T03:51:02.331Z,1022.29
2024-04-21T03:52:02.393Z,1022.3
2024-04-21T03:53:02.339Z,1022.3
2024-04-21T03:54:02.341Z,1022.32
2024-04-21T03:55:02.384Z,1022.32
2024-04-21T03:56:02.322Z,1022.35
2024-04-21T03:57:02.346Z,1022.31
2024-04-21T03:58:02.367Z,1022.32
2024-04-21T03:59:02.327Z,1022.4
2024-04-21T04:00:02.326Z,1022.38
2024-04-21T04:01:02.435Z,1022.37
2024-04-21T04:02:02.347Z,1022.4
2024-04-21T04:03:02.373Z,1022.37
2024-04-21T04:04:02.384Z,1022.37
2024-04-21T04:05:02.375Z,1022.34
2024-04-21T04:06:02.340Z,1022.4
2024-04-21T04:07:02.358Z,1022.38
2024-04-21T04:08:02.330Z,1022.38
2024-04-21T04:09:02.327Z,1022.44
2024-04-21T04:10:02.427Z,1022.45
2024-04-21T04:11:02.402Z,1022.45
2024-04-21T04:12:02.332Z,1022.41
2024-04-21T04:13:02.381Z,1022.46
2024-04-21T04:14:02.343Z,1022.45
2024-04-21T04:15:02.337Z,1022.47
2024-04-21T04:16:02.469Z,1022.47
2024-04-21T04:17:02.403Z,1022.45
2024-04-21T04:18:02.568Z,1022.44
2024-04-21T04:19:02.511Z,1022.45
2024-04-21T04:20:02.435Z,1022.46
2024-04-21T04:21:02.324Z,1022.47
2024-04-21T04:22:02.408Z,1022.51
2024-04-21T04:23:02.352Z,1022.54
2024-04-21T04:24:02.330Z,1022.51
2024-04-21T04:25:02.408Z,1022.52
2024-04-21T04:26:02.328Z,1022.54
2024-04-21T04:27:02.325Z,1022.52
2024-04-21T04:28:02.351Z,1022.51
2024-04-21T04:29:02.327Z,1022.52
2024-04-21T04:30:02.328Z,1022.55
2024-04-21T04:31:02.432Z,1022.56
2024-04-21T04:32:02.343Z,1022.56
2024-04-21T04:33:02.442Z,1022.56
2024-04-21T04:34:02.416Z,1022.59
2024-04-21T04:35:02.349Z,1022.6
2024-04-21T04:36:02.332Z,1022.63
2024-04-21T04:37:02.406Z,1022.61
2024-04-21T04:38:02.345Z,1022.66
2024-04-21T04:39:02.344Z,1022.65
2024-04-21T04:40:02.419Z,1022.68
2024-04-21T04:41:02.335Z,1022.73
2024-04-21T04:42:02.331Z,1022.74
2024-04-21T04:43:02.435Z,1022.74
2024-04-21T04:44:02.337Z,1022.79
2024-04-21T04:45:02.357Z,1022.78
2024-04-21T04:46:02.338Z,1022.78
2024-04-21T04:47:02.380Z,1022.81
2024-04-21T04:48:02.362Z,1022.81
2024-04-21T04:49:02.444Z,1022.77
2024-04-21T04:50:02.408Z,1022.8
2024-04-21T04:51:02.357Z,1022.8
2024-04-21T04:52:02.369Z,1022.81
2024-04-21T04:53:02.343Z,1022.8
2024-04-21T04:54:02.336Z,1022.84
2024-04-21T04:55:02.425Z,1022.81
2024-04-21T04:56:02.333Z,1022.84
2024-04-21T04:57:02.321Z,1022.87
2024-04-21T04:58:02.457Z,1022.78
2024-04-21T04:59:05.355Z,1022.8
2024-04-21T05:00:02.355Z,1022.77
2024-04-21T05:01:02.449Z,1022.8
2024-04-21T05:02:02.384Z,1022.8
2024-04-21T05:03:02.373Z,1022.79
2024-04-21T05:04:02.504Z,1022.8
2024-04-21T05:05:02.424Z,1022.81
2024-04-21T05:06:02.332Z,1022.79
2024-04-21T05:07:02.401Z,1022.74
2024-04-21T05:08:02.340Z,1022.77
2024-04-21T05:09:02.327Z,1022.77
2024-04-21T05:10:02.473Z,1022.72
2024-04-21T05:11:02.413Z,1022.72
2024-04-21T05:12:02.347Z,1022.73
2024-04-21T05:13:02.408Z,1022.75
2024-04-21T05:14:02.332Z,1022.76
2024-04-21T05:15:02.333Z,1022.77
2024-04-21T05:16:02.385Z,1022.78
2024-04-21T05:17:02.354Z,1022.78
2024-04-21T05:18:02.482Z,1022.8
2024-04-21T05:19:02.405Z,1022.76
2024-04-21T05:20:02.420Z,1022.77
2024-04-21T05:21:02.346Z,1022.81
2024-04-21T05:22:02.349Z,1022.84
2024-04-21T05:23:02.331Z,1022.88
2024-04-21T05:24:02.336Z,1022.77
2024-04-21T05:25:02.410Z,1022.8
2024-04-21T05:26:02.341Z,1022.81
2024-04-21T05:27:02.341Z,1022.77
2024-04-21T05:28:02.350Z,1022.81
2024-04-21T05:29:02.370Z,1022.81
2024-04-21T05:30:02.348Z,1022.81
2024-04-21T05:31:02.404Z,1022.83
2024-04-21T05:32:02.397Z,1022.82
2024-04-21T05:33:02.361Z,1022.84
2024-04-21T05:34:02.398Z,1022.84
2024-04-21T05:35:02.345Z,1022.84
2024-04-21T05:36:02.335Z,1022.81
2024-04-21T05:37:02.412Z,1022.89
2024-04-21T05:38:02.336Z,1022.89
2024-04-21T05:39:02.336Z,1022.87
2024-04-21T05:40:02.403Z,1022.88
2024-04-21T05:41:02.332Z,1022.84
2024-04-21T05:42:02.328Z,1022.85
2024-04-21T05:43:02.363Z,1022.88
2024-04-21T05:44:02.344Z,1022.85
2024-04-21T05:45:02.337Z,1022.84
2024-04-21T05:46:02.370Z,1022.87
2024-04-21T05:47:02.382Z,1022.87
2024-04-21T05:48:02.511Z,1022.85
2024-04-21T05:49:02.389Z,1022.89
2024-04-21T05:50:02.351Z,1022.88
2024-04-21T05:51:02.328Z,1022.91
2024-04-21T05:52:02.394Z,1022.91
2024-04-21T05:53:02.336Z,1022.91
2024-04-21T05:54:02.332Z,1022.91
2024-04-21T05:55:02.360Z,1022.94
2024-04-21T05:56:02.332Z,1022.94
2024-04-21T05:57:02.349Z,1022.94
2024-04-21T05:58:02.391Z,1022.9
2024-04-21T05:59:02.342Z,1022.91
2024-04-21T06:00:02.338Z,1022.96
2024-04-21T06:01:02.445Z,1022.98
2024-04-21T06:02:02.351Z,1022.93
2024-04-21T06:03:02.406Z,1022.97
2024-04-21T06:04:02.427Z,1022.98
2024-04-21T06:05:02.494Z,1023.01
2024-04-21T06:06:02.323Z,1023
2024-04-21T06:07:02.386Z,1023.01
2024-04-21T06:08:02.328Z,1023.04
2024-04-21T06:09:02.350Z,1023
2024-04-21T06:10:02.420Z,1023.02
2024-04-21T06:11:02.337Z,1023.02
2024-04-21T06:12:02.348Z,1023.02
2024-04-21T06:13:04.205Z,1023
2024-04-21T06:14:02.346Z,1023.07
2024-04-21T06:15:02.323Z,1023.06
2024-04-21T06:16:02.359Z,1023.08
2024-04-21T06:17:02.332Z,1023.05
2024-04-21T06:18:02.555Z,1023.05
2024-04-21T06:19:02.443Z,1023.11
2024-04-21T06:20:02.388Z,1023.13
2024-04-21T06:21:02.326Z,1023.1
2024-04-21T06:22:02.364Z,1023.11
2024-04-21T06:23:02.339Z,1023.12
2024-04-21T06:24:02.339Z,1023.14
2024-04-21T06:25:02.362Z,1023.14
2024-04-21T06:26:02.363Z,1023.17
2024-04-21T06:27:02.345Z,1023.13
2024-04-21T06:28:02.379Z,1023.14
2024-04-21T06:29:02.329Z,1023.18
2024-04-21T06:30:02.329Z,1023.16
2024-04-21T06:31:02.393Z,1023.17
2024-04-21T06:32:02.359Z,1023.14
2024-04-21T06:33:02.418Z,1023.17
2024-04-21T06:34:02.417Z,1023.18
2024-04-21T06:35:02.387Z,1023.17
2024-04-21T06:36:02.327Z,1023.17
2024-04-21T06:37:02.386Z,1023.19
2024-04-21T06:38:02.328Z,1023.22
2024-04-21T06:39:02.330Z,1023.17
2024-04-21T06:40:02.442Z,1023.22
2024-04-21T06:41:02.342Z,1023.17
2024-04-21T06:42:02.341Z,1023.19
2024-04-21T06:43:02.346Z,1023.16
2024-04-21T06:44:02.344Z,1023.18
2024-04-21T06:45:02.332Z,1023.17
2024-04-21T06:46:02.379Z,1023.19
2024-04-21T06:47:02.345Z,1023.13
2024-04-21T06:48:02.461Z,1023.16
2024-04-21T06:49:02.362Z,1023.11
2024-04-21T06:50:02.361Z,1023.05
2024-04-21T06:51:02.338Z,1023.14
2024-04-21T06:52:02.338Z,1023.13
2024-04-21T06:53:02.340Z,1023.11
2024-04-21T06:54:02.340Z,1023.1
2024-04-21T06:55:02.498Z,1023.11
2024-04-21T06:56:02.390Z,1023.12
2024-04-21T06:57:02.345Z,1023.13
2024-04-21T06:58:02.370Z,1023.18
2024-04-21T06:59:02.347Z,1023.17
2024-04-21T07:00:02.355Z,1023.2
2024-04-21T07:01:02.470Z,1023.18
2024-04-21T07:02:02.509Z,1023.24
2024-04-21T07:03:03.319Z,1023.29
2024-04-21T07:04:02.407Z,1023.31
2024-04-21T07:05:02.347Z,1023.35
2024-04-21T07:06:02.335Z,1023.34
2024-04-21T07:07:02.417Z,1023.33
2024-04-21T07:08:02.344Z,1023.34
2024-04-21T07:09:02.334Z,1023.31
2024-04-21T07:10:02.405Z,1023.3
2024-04-21T07:11:02.746Z,1023.3
2024-04-21T07:12:02.332Z,1023.22
2024-04-21T07:13:02.371Z,1023.28
2024-04-21T07:14:10.679Z,1023.25
2024-04-21T07:15:02.330Z,1023.25
2024-04-21T07:16:02.378Z,1023.27
2024-04-21T07:17:02.323Z,1023.24
2024-04-21T07:18:02.505Z,1023.25
2024-04-21T07:19:02.431Z,1023.26
2024-04-21T07:20:02.353Z,1023.23
2024-04-21T07:21:02.350Z,1023.31
2024-04-21T07:22:02.367Z,1023.3
2024-04-21T07:23:02.341Z,1023.28
2024-04-21T07:24:02.338Z,1023.27
2024-04-21T07:25:12.622Z,1023.23
2024-04-21T07:26:02.414Z,1023.27
2024-04-21T07:27:02.350Z,1023.22
2024-04-21T07:28:02.414Z,1023.22
2024-04-21T07:29:02.344Z,1023.25
2024-04-21T07:30:02.329Z,1023.22
2024-04-21T07:31:02.358Z,1023.22
2024-04-21T07:32:02.382Z,1023.21
2024-04-21T07:33:02.399Z,1023.19
2024-04-21T07:34:02.411Z,1023.19
2024-04-21T07:35:02.352Z,1023.19
2024-04-21T07:36:02.324Z,1023.15
2024-04-21T07:37:02.397Z,1023.13
2024-04-21T07:38:06.050Z,1023.1
2024-04-21T07:39:02.339Z,1023.1
2024-04-21T07:40:02.345Z,1023.08
2024-04-21T07:41:02.326Z,1023.06
2024-04-21T07:42:02.339Z,1023.06
2024-04-21T07:43:02.408Z,1023
2024-04-21T07:44:02.337Z,1023
2024-04-21T07:45:02.329Z,1022.95
2024-04-21T07:46:03.386Z,1022.97
2024-04-21T07:47:02.392Z,1022.92
2024-04-21T07:48:02.580Z,1022.94
2024-04-21T07:49:02.375Z,1022.94
2024-04-21T07:50:02.352Z,1022.93
2024-04-21T07:51:02.330Z,1022.97
2024-04-21T07:52:02.372Z,1022.99
2024-04-21T07:53:02.354Z,1022.99
2024-04-21T07:54:02.358Z,1022.99
2024-04-21T07:55:02.412Z,1022.98
2024-04-21T07:56:02.343Z,1023.05
2024-04-21T07:57:03.729Z,1023.08
2024-04-21T07:58:02.393Z,1023.11
2024-04-21T07:59:02.339Z,1023.05
2024-04-21T08:00:02.334Z,1023.08
2024-04-21T08:01:02.402Z,1023.07
2024-04-21T08:02:02.506Z,1023.06
2024-04-21T08:03:02.374Z,1023.03
2024-04-21T08:04:02.396Z,1023.02
2024-04-21T08:05:02.395Z,1023.04
2024-04-21T08:06:02.342Z,1023.02
2024-04-21T08:07:02.376Z,1023.04
2024-04-21T08:08:02.344Z,1023.06
2024-04-21T08:09:11.756Z,1023.1
2024-04-21T08:10:02.363Z,1023.05
2024-04-21T08:11:04.919Z,1023.05
2024-04-21T08:12:02.320Z,1023.03
2024-04-21T08:13:02.358Z,1023.03
2024-04-21T08:14:02.355Z,1023.02
2024-04-21T08:15:02.340Z,1022.99
2024-04-21T08:16:02.410Z,1023.01
2024-04-21T08:17:02.340Z,1023.03
2024-04-21T08:18:02.450Z,1023.04
2024-04-21T08:19:02.415Z,1023.04
2024-04-21T08:20:02.398Z,1023.03
2024-04-21T08:21:02.384Z,1022.95
2024-04-21T08:22:02.395Z,1022.94
2024-04-21T08:23:02.338Z,1022.95
2024-04-21T08:24:02.325Z,1022.95
2024-04-21T08:25:02.371Z,1022.96
2024-04-21T08:26:02.354Z,1022.9
2024-04-21T08:27:02.328Z,1022.94
2024-04-21T08:28:02.417Z,1022.95
2024-04-21T08:29:02.342Z,1022.99
2024-04-21T08:30:02.330Z,1023.02
2024-04-21T08:31:02.382Z,1023.02
2024-04-21T08:32:02.366Z,1023.02
2024-04-21T08:33:02.338Z,1023.04
2024-04-21T08:34:02.396Z,1023.01
2024-04-21T08:35:02.353Z,1023.04
2024-04-21T08:36:02.325Z,1022.99
2024-04-21T08:37:02.373Z,1023.04
2024-04-21T08:38:02.341Z,1023.02
2024-04-21T08:39:02.339Z,1023.05
2024-04-21T08:40:02.379Z,1023.11
2024-04-21T08:41:02.346Z,1023.13
2024-04-21T08:42:02.334Z,1023.18
2024-04-21T08:43:02.352Z,1023.17
2024-04-21T08:44:02.338Z,1023.21
2024-04-21T08:45:02.334Z,1023.19
2024-04-21T08:46:02.345Z,1023.2
2024-04-21T08:47:02.322Z,1023.23
2024-04-21T08:48:02.430Z,1023.17
2024-04-21T08:49:02.368Z,1023.27
2024-04-21T08:50:02.460Z,1023.28
2024-04-21T08:51:02.345Z,1023.3
2024-04-21T08:52:02.361Z,1023.29
2024-04-21T08:53:02.331Z,1023.3
2024-04-21T08:54:02.339Z,1023.28
2024-04-21T08:55:02.371Z,1023.27
2024-04-21T08:56:02.333Z,1023.25
2024-04-21T08:57:02.328Z,1023.27
2024-04-21T08:58:02.354Z,1023.23
2024-04-21T08:59:02.330Z,1023.19
2024-04-21T09:00:02.327Z,1023.23
2024-04-21T09:01:02.403Z,1023.24
2024-04-21T09:02:02.419Z,1023.28
2024-04-21T09:03:02.346Z,1023.28
2024-04-21T09:04:02.491Z,1023.26
2024-04-21T09:05:02.414Z,1023.3
2024-04-21T09:06:02.336Z,1023.23
2024-04-21T09:07:02.386Z,1023.22
2024-04-21T09:08:02.353Z,1023.25
2024-04-21T09:09:02.348Z,1023.25
2024-04-21T09:10:02.451Z,1023.21
2024-04-21T09:11:02.549Z,1023.21
2024-04-21T09:12:02.359Z,1023.13
2024-04-21T09:13:02.382Z,1023.16
2024-04-21T09:14:02.343Z,1023.11
2024-04-21T09:15:02.346Z,1023.18
2024-04-21T09:16:02.360Z,1023.21
2024-04-21T09:17:02.337Z,1023.22
2024-04-21T09:18:02.541Z,1023.23
2024-04-21T09:19:02.362Z,1023.22
2024-04-21T09:20:02.347Z,1023.25
2024-04-21T09:21:02.351Z,1023.16
2024-04-21T09:22:02.384Z,1023.22
2024-04-21T09:23:02.336Z,1023.17
2024-04-21T09:24:02.330Z,1023.2
2024-04-21T09:25:02.378Z,1023.3
2024-04-21T09:26:02.326Z,1023.25
2024-04-21T09:27:02.338Z,1023.16
2024-04-21T09:28:02.362Z,1023.2
2024-04-21T09:29:02.331Z,1023.13
2024-04-21T09:30:02.418Z,1023.15
2024-04-21T09:31:02.376Z,1023.16
2024-04-21T09:32:02.380Z,1023.18
2024-04-21T09:33:02.590Z,1023.19
2024-04-21T09:34:02.368Z,1023.15
2024-04-21T09:35:02.356Z,1023.19
2024-04-21T09:36:02.334Z,1023.14
2024-04-21T09:37:02.346Z,1023.13
2024-04-21T09:38:02.323Z,1023.13
2024-04-21T09:39:02.368Z,1023.03
2024-04-21T09:40:02.492Z,1023
2024-04-21T09:41:02.337Z,1023.03
2024-04-21T09:42:02.353Z,1023.06
2024-04-21T09:43:02.360Z,1023.08
2024-04-21T09:44:02.327Z,1023.06
2024-04-21T09:45:02.347Z,1023.1
2024-04-21T09:46:02.433Z,1023.1
2024-04-21T09:47:02.317Z,1023.14
2024-04-21T09:48:02.591Z,1023.05
2024-04-21T09:49:02.392Z,1023.05
2024-04-21T09:50:02.351Z,1023.1
2024-04-21T09:51:02.329Z,1023.14
2024-04-21T09:52:02.374Z,1023.08
2024-04-21T09:53:02.350Z,1023.13
2024-04-21T09:54:02.346Z,1023.16
2024-04-21T09:55:02.425Z,1023.15
2024-04-21T09:56:02.351Z,1023.15
2024-04-21T09:57:02.325Z,1023.17
2024-04-21T09:58:02.567Z,1023.13
2024-04-21T09:59:02.337Z,1023.19
2024-04-21T10:00:02.665Z,1023.15
2024-04-21T10:01:02.427Z,1023.15
2024-04-21T10:02:02.416Z,1023.2
2024-04-21T10:03:02.510Z,1023.18
2024-04-21T10:04:02.439Z,1023.19
2024-04-21T10:05:02.354Z,1023.16
2024-04-21T10:06:02.332Z,1023.18
2024-04-21T10:07:02.376Z,1023.18
2024-04-21T10:08:02.332Z,1023.16
2024-04-21T10:09:02.340Z,1023.16
2024-04-21T10:10:02.448Z,1023.07
2024-04-21T10:11:02.346Z,1023.07
2024-04-21T10:12:02.328Z,1023.05
2024-04-21T10:13:02.413Z,1023.05
2024-04-21T10:14:02.377Z,1023.03
2024-04-21T10:15:02.332Z,1023
2024-04-21T10:16:02.378Z,1022.95
2024-04-21T10:17:02.341Z,1022.98
2024-04-21T10:18:02.484Z,1022.96
2024-04-21T10:19:02.352Z,1023.01
2024-04-21T10:20:02.389Z,1022.98
2024-04-21T10:21:02.341Z,1022.98
2024-04-21T10:22:02.457Z,1022.94
2024-04-21T10:23:02.344Z,1022.9
2024-04-21T10:24:02.341Z,1022.96
2024-04-21T10:25:02.413Z,1022.83
2024-04-21T10:26:02.331Z,1022.97
2024-04-21T10:27:02.368Z,1023.01
2024-04-21T10:28:02.437Z,1023
2024-04-21T10:29:02.342Z,1022.99
2024-04-21T10:30:02.355Z,1022.96
2024-04-21T10:31:02.363Z,1023
2024-04-21T10:32:02.361Z,1023
2024-04-21T10:33:02.352Z,1023.07
2024-04-21T10:34:02.377Z,1023.03
2024-04-21T10:35:02.351Z,1023.01
2024-04-21T10:36:02.333Z,1023.06
2024-04-21T10:37:02.391Z,1023.04
2024-04-21T10:38:02.330Z,1023.02
2024-04-21T10:39:02.333Z,1023.05
2024-04-21T10:40:02.439Z,1023.06
2024-04-21T10:41:02.341Z,1023.13
2024-04-21T10:42:02.347Z,1023.08
2024-04-21T10:43:02.335Z,1023.08
2024-04-21T10:44:02.329Z,1023.07
2024-04-21T10:45:02.358Z,1023.12
2024-04-21T10:46:02.365Z,1023.13
2024-04-21T10:47:02.331Z,1023.21
2024-04-21T10:48:02.401Z,1023.16
2024-04-21T10:49:02.390Z,1023.17
2024-04-21T10:50:02.353Z,1023.17
2024-04-21T10:51:02.344Z,1023.15
2024-04-21T10:52:02.354Z,1023.18
2024-04-21T10:53:02.345Z,1023.19
2024-04-21T10:54:02.333Z,1023.14
2024-04-21T10:55:02.366Z,1023.19
2024-04-21T10:56:02.353Z,1023.2
2024-04-21T10:57:02.336Z,1023.18
2024-04-21T10:58:02.478Z,1023.18
2024-04-21T10:59:02.339Z,1023.18
2024-04-21T11:00:02.338Z,1023.03
2024-04-21T11:01:02.488Z,1023.02
2024-04-21T11:02:02.437Z,1023
2024-04-21T11:03:02.364Z,1022.89
2024-04-21T11:04:02.428Z,1022.98
2024-04-21T11:05:02.349Z,1022.95
2024-04-21T11:06:02.374Z,1022.98
2024-04-21T11:07:02.370Z,1022.92
2024-04-21T11:08:02.324Z,1022.93
2024-04-21T11:09:02.336Z,1022.97
2024-04-21T11:10:02.429Z,1022.97
2024-04-21T11:11:02.432Z,1022.97
2024-04-21T11:12:02.331Z,1022.97
2024-04-21T11:13:02.387Z,1023.04
2024-04-21T11:14:02.335Z,1023.06
2024-04-21T11:15:02.362Z,1023.1
2024-04-21T11:16:02.499Z,1023.05
2024-04-21T11:17:02.332Z,1023.1
2024-04-21T11:18:02.466Z,1023.06
2024-04-21T11:19:02.485Z,1023.06
2024-04-21T11:20:02.345Z,1023.08
2024-04-21T11:21:02.331Z,1023.06
2024-04-21T11:22:02.356Z,1022.99
2024-04-21T11:23:02.327Z,1023.06
2024-04-21T11:24:02.355Z,1023.05
2024-04-21T11:25:02.376Z,1023.03
2024-04-21T11:26:02.322Z,1023.02
2024-04-21T11:27:02.329Z,1023.12
2024-04-21T11:28:02.396Z,1023.11
2024-04-21T11:29:02.340Z,1023.07
2024-04-21T11:30:02.357Z,1023.08
2024-04-21T11:31:02.329Z,1023.11
2024-04-21T11:32:02.362Z,1023.14
2024-04-21T11:33:02.393Z,1023.18
2024-04-21T11:34:02.469Z,1023.17
2024-04-21T11:35:02.353Z,1023.15
2024-04-21T11:36:02.324Z,1023.08
2024-04-21T11:37:02.350Z,1023.05
2024-04-21T11:38:02.331Z,1022.99
2024-04-21T11:39:02.416Z,1023.05
2024-04-21T11:40:02.568Z,1023.07
2024-04-21T11:41:02.327Z,1023.11
2024-04-21T11:42:02.330Z,1023.06
2024-04-21T11:43:02.426Z,1023.08
2024-04-21T11:44:02.340Z,1023.12
2024-04-21T11:45:02.346Z,1023.16
2024-04-21T11:46:02.525Z,1023.15
2024-04-21T11:47:02.319Z,1023.06
2024-04-21T11:48:02.460Z,1023.16
2024-04-21T11:49:02.386Z,1023.14
2024-04-21T11:50:02.351Z,1023.07
2024-04-21T11:51:02.362Z,1023.21
2024-04-21T11:52:02.400Z,1023.2
2024-04-21T11:53:02.426Z,1023.14
2024-04-21T11:54:02.342Z,1023.22
2024-04-21T11:55:02.392Z,1023.2
2024-04-21T11:56:02.340Z,1023.21
2024-04-21T11:57:02.339Z,1023.27
2024-04-21T11:58:02.377Z,1023.27
2024-04-21T11:59:02.327Z,1023.26
2024-04-21T12:00:05.462Z,1023.28
2024-04-21T12:01:02.413Z,1023.26
2024-04-21T12:02:02.386Z,1023.28
2024-04-21T12:03:02.391Z,1023.34
2024-04-21T12:04:02.394Z,1023.27
2024-04-21T12:05:02.672Z,1023.23
2024-04-21T12:06:02.327Z,1023.28
2024-04-21T12:07:02.376Z,1023.18
2024-04-21T12:08:02.343Z,1023.2
2024-04-21T12:09:02.337Z,1023.19
2024-04-21T12:10:02.438Z,1023.16